Time;durP1;ratioP1;P1;durP2;ratioP2;P2;SDS_P1;SDS_P2;PMS_P1;PMS_P2;Temp;Humidity;BMP_temperature;BMP_pressure;BME280_temperature;BME280_humidity;BME280_pressure;Samples;Min_cycle;Max_cycle;Signal;HPM_P1;HPM_P2
2022/01/21 00:00:13;;;;;;;40.15;17.00;;;-0.30;99.90;;;;;;5066429;28;20028;-76
2022/01/21 00:02:39;;;;;;;43.03;17.08;;;-0.30;99.90;;;;;;5066413;28;20045;-77
2022/01/21 00:05:06;;;;;;;38.97;15.63;;;-0.40;99.90;;;;;;5032918;28;20048;-78
2022/01/21 00:07:32;;;;;;;37.83;16.08;;;-0.40;99.90;;;;;;5066471;28;20031;-77
2022/01/21 00:09:58;;;;;;;41.13;15.38;;;-0.40;99.90;;;;;;5083865;28;20312;-76
2022/01/21 00:12:26;;;;;;;39.88;15.98;;;-0.40;99.90;;;;;;5065867;28;20123;-75
2022/01/21 00:14:51;;;;;;;44.92;16.42;;;-0.40;99.90;;;;;;5084351;28;20368;-79
2022/01/21 00:17:19;;;;;;;37.03;14.48;;;-0.40;99.90;;;;;;5066226;28;20024;-77
2022/01/21 00:19:47;;;;;;;39.28;15.85;;;-0.50;99.90;;;;;;5083849;28;20016;-75
2022/01/21 00:30:12;;;;;;;33.72;14.20;;;-0.50;99.90;;;;;;5082984;28;20023;-77
2022/01/21 00:30:30;;;;;;;43.20;14.90;;;-0.50;99.90;;;;;;5064701;28;20253;-77
2022/01/21 00:32:56;;;;;;;34.42;15.13;;;-0.50;99.90;;;;;;5073167;28;20024;-77
2022/01/21 00:35:21;;;;;;;37.10;14.57;;;-0.60;99.90;;;;;;5085185;28;20039;-75
2022/01/21 00:37:47;;;;;;;42.35;15.45;;;-0.60;99.90;;;;;;5084157;28;20033;-76
2022/01/21 00:40:18;;;;;;;40.22;15.15;;;-0.60;99.90;;;;;;5065893;28;20024;-76
2022/01/21 00:42:51;;;;;;;40.47;15.73;;;-0.70;99.90;;;;;;5049821;28;20195;-77
2022/01/21 00:45:19;;;;;;;36.92;14.45;;;-0.70;99.90;;;;;;5083666;28;20051;-77
2022/01/21 00:47:45;;;;;;;35.50;13.95;;;-0.70;99.90;;;;;;5065675;28;20078;-75
2022/01/21 00:50:13;;;;;;;30.67;13.90;;;-0.70;99.90;;;;;;5065627;28;20029;-76
2022/01/21 00:52:38;;;;;;;32.25;14.65;;;-0.60;99.90;;;;;;5066050;28;20016;-77
2022/01/21 00:55:06;;;;;;;35.35;13.90;;;-0.70;99.90;;;;;;5066023;28;20077;-76
2022/01/21 00:57:32;;;;;;;39.33;14.35;;;-0.70;99.90;;;;;;5049392;28;20319;-78
2022/01/21 00:59:57;;;;;;;36.45;13.88;;;-0.70;99.90;;;;;;5081769;28;20031;-77
2022/01/21 01:02:23;;;;;;;32.85;12.48;;;-0.60;99.90;;;;;;5083338;28;20248;-76
2022/01/21 01:04:49;;;;;;;36.00;13.35;;;-0.70;99.90;;;;;;5083673;28;20033;-77
2022/01/21 01:07:15;;;;;;;39.38;13.70;;;-0.70;99.90;;;;;;5083659;28;20295;-75
2022/01/21 01:09:42;;;;;;;40.72;15.23;;;-0.70;99.90;;;;;;5083340;28;20031;-75
2022/01/21 01:20:17;;;;;;;31.45;13.38;;;-0.70;99.90;;;;;;5054428;28;20012;-76
2022/01/21 01:23:03;;;;;;;37.47;14.68;;;-0.70;99.90;;;;;;5066815;28;20024;-75
2022/01/21 01:28:15;;;;;;;30.38;13.90;;;-0.70;99.90;;;;;;5072412;28;20061;-76
2022/01/21 01:30:40;;;;;;;33.88;12.45;;;-0.80;99.90;;;;;;5086942;28;20079;-75
2022/01/21 01:33:09;;;;;;;32.03;13.15;;;-0.80;99.90;;;;;;5085687;28;20075;-75
2022/01/21 01:35:35;;;;;;;40.42;13.63;;;-0.80;99.90;;;;;;5087154;28;20020;-75
2022/01/21 01:38:23;;;;;;;37.05;14.23;;;-0.90;99.90;;;;;;5086990;28;20046;-77
2022/01/21 01:40:54;;;;;;;38.05;12.98;;;-0.90;99.90;;;;;;5085739;28;20086;-74
2022/01/21 01:49:26;;;;;;;28.52;12.68;;;-0.90;99.90;;;;;;5085285;28;20029;-77
2022/01/21 01:51:37;;;;;;;32.55;13.02;;;-1.00;99.90;;;;;;5070847;28;20073;-78
2022/01/21 01:54:08;;;;;;;38.58;13.15;;;-1.00;99.90;;;;;;5086772;28;20028;-76
2022/01/21 01:56:37;;;;;;;28.50;12.05;;;-1.00;99.90;;;;;;5069106;28;20028;-77
2022/01/21 01:59:03;;;;;;;32.20;11.60;;;-1.00;99.90;;;;;;5084842;28;20020;-78
2022/01/21 02:01:29;;;;;;;29.85;12.80;;;-1.00;99.90;;;;;;5086065;28;20023;-77
2022/01/21 02:03:55;;;;;;;29.50;13.10;;;-1.00;99.90;;;;;;5086424;28;20359;-77
2022/01/21 02:06:21;;;;;;;32.78;13.05;;;-1.10;99.90;;;;;;5086013;28;20062;-77
2022/01/21 02:08:46;;;;;;;31.60;12.07;;;-1.10;99.90;;;;;;5068638;28;20047;-77
2022/01/21 02:11:12;;;;;;;26.52;10.60;;;-1.10;99.90;;;;;;5085795;28;20235;-76
2022/01/21 02:13:43;;;;;;;29.88;11.43;;;-1.10;99.90;;;;;;5086185;28;20346;-75
2022/01/21 02:16:31;;;;;;;25.35;11.45;;;-1.20;99.90;;;;;;5068110;28;20079;-78
2022/01/21 02:21:46;;;;;;;31.25;11.43;;;-1.10;99.90;;;;;;5070814;28;20013;-76
2022/01/21 02:24:18;;;;;;;26.08;11.07;;;-1.10;99.90;;;;;;5068721;28;20095;-77
2022/01/21 02:26:46;;;;;;;29.70;11.38;;;-1.20;99.90;;;;;;5087666;28;20090;-76
2022/01/21 02:29:17;;;;;;;28.42;11.15;;;-1.20;99.90;;;;;;5054919;28;20038;-75
2022/01/21 02:31:43;;;;;;;25.87;12.30;;;-1.20;99.90;;;;;;5054633;28;20021;-79
2022/01/21 02:34:09;;;;;;;27.42;10.68;;;-1.10;99.90;;;;;;5088113;28;20095;-76
2022/01/21 02:36:36;;;;;;;28.10;10.65;;;-1.20;99.90;;;;;;5089607;28;20303;-78
2022/01/21 02:39:03;;;;;;;29.40;11.23;;;-1.20;99.90;;;;;;5068153;28;20354;-77
2022/01/21 02:41:29;;;;;;;27.65;10.75;;;-1.20;99.90;;;;;;5085459;28;20044;-78
2022/01/21 02:43:54;;;;;;;26.40;10.48;;;-1.20;99.90;;;;;;5068014;28;20047;-75
2022/01/21 02:46:22;;;;;;;22.15;9.70;;;-1.30;99.90;;;;;;5085501;28;20021;-77
2022/01/21 02:48:48;;;;;;;29.38;11.18;;;-1.20;99.90;;;;;;5085057;28;20099;-76
2022/01/21 02:51:15;;;;;;;24.90;10.63;;;-1.10;99.90;;;;;;5085493;28;20020;-78
2022/01/21 02:56:28;;;;;;;26.80;11.02;;;-1.20;99.90;;;;;;5070567;28;20020;-77
2022/01/21 02:58:54;;;;;;;26.08;10.93;;;-1.30;99.90;;;;;;5067225;28;20026;-78
2022/01/21 03:01:19;;;;;;;25.77;10.95;;;-1.20;99.90;;;;;;5083886;28;20203;-77
2022/01/21 03:03:46;;;;;;;24.80;11.25;;;-1.30;99.90;;;;;;5066986;28;20087;-78
2022/01/21 03:06:15;;;;;;;26.40;10.48;;;-1.30;99.90;;;;;;5085022;28;20020;-76
2022/01/21 03:08:42;;;;;;;29.17;10.70;;;-1.50;99.90;;;;;;5050714;28;20239;-75
2022/01/21 03:11:08;;;;;;;29.85;12.00;;;-1.50;99.90;;;;;;5084840;28;20044;-76
2022/01/21 03:13:34;;;;;;;29.15;10.75;;;-1.50;99.90;;;;;;5084825;28;20027;-76
2022/01/21 03:16:00;;;;;;;25.73;10.70;;;-1.50;99.90;;;;;;5085246;28;20024;-76
2022/01/21 03:18:25;;;;;;;25.92;10.57;;;-1.50;99.90;;;;;;5066539;28;20020;-74
2022/01/21 03:20:51;;;;;;;28.75;11.02;;;-1.50;99.90;;;;;;5085015;28;20028;-76
2022/01/21 03:23:19;;;;;;;22.55;10.40;;;-1.40;99.90;;;;;;5067163;28;20024;-77
2022/01/21 03:25:47;;;;;;;30.73;10.32;;;-1.40;99.90;;;;;;5084814;28;20045;-76
2022/01/21 03:28:14;;;;;;;23.50;9.85;;;-1.30;99.90;;;;;;5091773;28;20051;-76
2022/01/21 03:30:40;;;;;;;28.85;10.02;;;-1.30;99.90;;;;;;5079218;28;20036;-75
2022/01/21 03:33:07;;;;;;;22.67;9.65;;;-1.30;99.90;;;;;;5060992;28;20103;-77
2022/01/21 03:35:33;;;;;;;30.40;10.32;;;-1.30;99.90;;;;;;5058109;28;20039;-77
2022/01/21 03:37:59;;;;;;;25.23;9.68;;;-1.40;99.90;;;;;;5053753;28;20421;-76
2022/01/21 03:40:25;;;;;;;21.42;9.60;;;-1.50;99.90;;;;;;5066489;28;20028;-77
2022/01/21 03:42:50;;;;;;;27.55;10.88;;;-1.50;99.90;;;;;;5049881;28;20315;-75
2022/01/21 03:45:17;;;;;;;26.00;9.95;;;-1.50;99.90;;;;;;5083798;28;20031;-76
2022/01/21 03:47:43;;;;;;;24.45;9.95;;;-1.50;99.90;;;;;;5066709;28;20024;-78
2022/01/21 03:52:56;;;;;;;24.60;10.68;;;-1.50;99.90;;;;;;5069376;28;20315;-76
2022/01/21 03:55:22;;;;;;;29.45;9.93;;;-1.40;99.90;;;;;;5083598;28;20052;-77
2022/01/21 03:57:48;;;;;;;23.23;9.65;;;-1.40;99.90;;;;;;5084278;28;20040;-76
2022/01/21 04:00:19;;;;;;;24.88;9.55;;;-1.40;99.90;;;;;;5084277;28;20095;-78
2022/01/21 04:02:45;;;;;;;;;;;-1.50;99.90;;;;;;5065363;28;20095;-75
2022/01/21 04:05:11;;;;;;;26.92;10.25;;;-1.50;99.90;;;;;;5083992;28;19912;-76
2022/01/21 04:07:37;;;;;;;22.63;9.77;;;-1.50;99.90;;;;;;5065866;28;20143;-76
2022/01/21 04:10:05;;;;;;;24.20;10.02;;;-1.50;99.90;;;;;;5083953;28;20326;-77
2022/01/21 04:12:30;;;;;;;22.42;9.20;;;-1.50;99.90;;;;;;5083574;28;20032;-77
2022/01/21 04:14:58;;;;;;;22.75;9.93;;;-1.50;99.90;;;;;;5083641;28;20188;-76
2022/01/21 04:17:25;;;;;;;29.98;10.15;;;-1.50;99.90;;;;;;5066192;28;20242;-75
2022/01/21 04:19:51;;;;;;;22.80;9.68;;;-1.60;99.90;;;;;;5083667;28;20020;-77
2022/01/21 04:22:17;;;;;;;24.83;10.25;;;-1.60;99.90;;;;;;5083785;28;20067;-75
2022/01/21 04:24:45;;;;;;;21.27;9.02;;;-1.50;99.90;;;;;;5083566;28;20069;-77
2022/01/21 04:27:11;;;;;;;24.85;9.95;;;-1.50;99.90;;;;;;5082176;28;20118;-75
2022/01/21 04:29:37;;;;;;;27.20;9.88;;;-1.50;99.90;;;;;;5085503;28;20249;-77
2022/01/21 04:32:03;;;;;;;26.13;9.32;;;-1.60;99.90;;;;;;5103491;28;20016;-75
2022/01/21 04:34:29;;;;;;;22.63;10.43;;;-1.60;99.90;;;;;;5103870;28;20199;-77
2022/01/21 04:36:54;;;;;;;24.17;9.98;;;-1.50;99.90;;;;;;5104257;28;20028;-76
2022/01/21 04:39:27;;;;;;;27.02;10.18;;;-1.50;99.90;;;;;;5085878;28;20299;-77
2022/01/21 04:47:16;;;;;;;25.25;9.82;;;-1.60;99.90;;;;;;5102724;28;20020;-77
2022/01/21 04:47:24;;;;;;;24.25;10.57;;;-1.70;99.90;;;;;;5082498;28;20084;-75
2022/01/21 04:49:50;;;;;;;21.40;9.57;;;-1.70;99.90;;;;;;5065465;28;20036;-77
2022/01/21 04:52:16;;;;;;;22.27;9.88;;;-1.70;99.90;;;;;;5065347;28;20028;-76
2022/01/21 04:54:42;;;;;;;27.33;10.05;;;-1.70;99.90;;;;;;5065647;28;20020;-76
2022/01/21 04:57:09;;;;;;;28.17;10.80;;;-1.90;99.90;;;;;;5084474;28;20031;-76
2022/01/21 04:59:37;;;;;;;27.25;9.98;;;-1.90;99.90;;;;;;5069934;28;20024;-75
2022/01/21 05:02:02;;;;;;;25.88;10.63;;;-1.90;99.90;;;;;;5085725;28;20025;-75
2022/01/21 05:04:28;;;;;;;22.02;9.23;;;-1.90;99.90;;;;;;5087399;28;20025;-76
2022/01/21 05:06:55;;;;;;;24.25;9.95;;;-1.80;99.90;;;;;;5087270;28;20247;-76
2022/01/21 05:09:29;;;;;;;28.02;10.40;;;-1.80;99.90;;;;;;5086255;28;20017;-75
2022/01/21 05:11:55;;;;;;;25.77;9.40;;;-1.70;99.90;;;;;;5070386;28;20030;-74
2022/01/21 05:14:26;;;;;;;23.10;9.80;;;-1.80;99.90;;;;;;5086176;28;20042;-77
2022/01/21 05:17:00;;;;;;;23.70;9.25;;;-1.80;99.90;;;;;;5086847;28;20036;-74
2022/01/21 05:19:26;;;;;;;27.10;10.25;;;-1.70;99.90;;;;;;5086789;28;20027;-74
2022/01/21 05:21:52;;;;;;;23.27;9.82;;;-1.60;99.90;;;;;;5069047;28;20020;-76
2022/01/21 05:24:20;;;;;;;24.67;10.18;;;-1.70;99.90;;;;;;5086546;28;20036;-74
2022/01/21 05:26:53;;;;;;;27.58;9.30;;;-1.70;99.90;;;;;;5086665;28;20048;-74
2022/01/21 05:29:20;;;;;;;23.20;10.18;;;-1.80;99.90;;;;;;5087312;28;20029;-75
2022/01/21 05:31:47;;;;;;;26.35;10.25;;;-1.90;99.90;;;;;;5107173;28;20020;-74
2022/01/21 05:34:12;;;;;;;24.90;10.27;;;-1.90;99.90;;;;;;5106255;28;20020;-74
2022/01/21 05:36:40;;;;;;;25.02;9.57;;;-1.90;99.90;;;;;;5106852;28;20031;-78
2022/01/21 05:39:08;;;;;;;17.73;9.50;;;-1.90;99.90;;;;;;5107463;28;20195;-78
2022/01/21 05:41:34;;;;;;;24.80;9.63;;;-2.00;99.90;;;;;;5106834;28;20058;-77
2022/01/21 05:44:04;;;;;;;22.67;9.38;;;-2.00;99.90;;;;;;5106777;28;20032;-77
2022/01/21 05:49:15;;;;;;;24.73;8.77;;;-2.00;99.90;;;;;;5105952;28;20329;-75
2022/01/21 05:51:42;;;;;;;25.08;9.43;;;-2.00;99.90;;;;;;5107192;28;20051;-75
2022/01/21 05:54:08;;;;;;;25.50;9.98;;;-2.00;99.90;;;;;;5105594;28;20311;-76
2022/01/21 05:56:35;;;;;;;21.35;10.10;;;-2.00;99.90;;;;;;5105523;28;20222;-77
2022/01/21 05:59:01;;;;;;;37.53;12.50;;;-2.00;99.90;;;;;;5088272;28;20095;-77
2022/01/21 06:01:27;;;;;;;24.80;10.40;;;-2.00;99.90;;;;;;5106336;28;20023;-77
2022/01/21 06:03:53;;;;;;;24.55;9.40;;;-1.90;99.90;;;;;;5104821;28;20056;-78
2022/01/21 06:06:19;;;;;;;21.05;9.88;;;-1.90;99.90;;;;;;5105241;28;20024;-76
2022/01/21 06:08:45;;;;;;;24.40;10.32;;;-1.90;99.90;;;;;;5104858;28;20063;-75
2022/01/21 06:11:11;;;;;;;30.60;10.60;;;-1.90;99.90;;;;;;5106113;28;20087;-75
2022/01/21 06:13:37;;;;;;;29.33;10.40;;;-1.90;99.90;;;;;;5106067;28;20285;-76
2022/01/21 06:16:03;;;;;;;24.20;10.32;;;-1.90;99.90;;;;;;5071519;28;20090;-77
2022/01/21 06:18:29;;;;;;;27.08;10.65;;;-2.00;99.90;;;;;;5106344;28;20089;-78
2022/01/21 06:20:54;;;;;;;29.45;10.82;;;-2.10;99.90;;;;;;5106350;28;20027;-78
2022/01/21 06:23:20;;;;;;;25.30;10.65;;;-2.10;99.90;;;;;;5105241;28;20362;-74
2022/01/21 06:25:46;;;;;;;27.13;11.63;;;-2.10;99.90;;;;;;5110827;28;20334;-75
2022/01/21 06:28:12;;;;;;;26.65;10.82;;;-2.10;99.90;;;;;;5108766;28;20047;-77
2022/01/21 06:30:38;;;;;;;32.78;10.13;;;-2.10;99.90;;;;;;5114917;28;20069;-77
2022/01/21 06:33:04;;;;;;;24.20;9.35;;;-2.10;99.90;;;;;;5111708;28;20024;-76
2022/01/21 06:35:30;;;;;;;23.83;9.32;;;-2.00;99.90;;;;;;5119478;28;20078;-75
2022/01/21 06:37:56;;;;;;;33.47;11.18;;;-2.10;99.90;;;;;;5099591;28;20024;-77
2022/01/21 06:40:22;;;;;;;20.55;9.25;;;-2.10;99.90;;;;;;5115714;28;20079;-77
2022/01/21 06:42:49;;;;;;;22.80;8.90;;;-2.10;99.90;;;;;;5113808;28;20383;-76
2022/01/21 06:45:15;;;;;;;28.13;9.93;;;-2.10;99.90;;;;;;5071757;28;20020;-79
2022/01/21 06:47:41;;;;;;;18.05;9.27;;;-2.10;99.90;;;;;;5087070;28;20028;-76
2022/01/21 06:50:07;;;;;;;25.58;10.82;;;-2.10;99.90;;;;;;5087740;28;20024;-76
2022/01/21 06:52:34;;;;;;;28.38;8.70;;;-2.20;99.90;;;;;;5105441;28;20030;-77
2022/01/21 06:55:00;;;;;;;23.20;8.68;;;-2.20;99.90;;;;;;5070767;28;20024;-77
2022/01/21 06:57:27;;;;;;;22.40;8.85;;;-2.20;99.90;;;;;;5105591;28;20083;-75
2022/01/21 06:59:53;;;;;;;19.33;8.38;;;-2.10;99.90;;;;;;5105601;28;20038;-77
2022/01/21 07:02:19;;;;;;;24.13;8.95;;;-2.10;99.90;;;;;;5105590;28;20020;-78
2022/01/21 07:04:47;;;;;;;28.67;8.70;;;-2.20;99.90;;;;;;5103996;28;20020;-75
2022/01/21 07:07:13;;;;;;;21.95;7.63;;;-2.10;99.90;;;;;;5070257;28;20028;-76
2022/01/21 07:09:39;;;;;;;20.98;8.43;;;-2.10;99.90;;;;;;5105257;28;20024;-79
2022/01/21 07:12:05;;;;;;;24.98;8.90;;;-2.10;99.90;;;;;;5105064;28;20315;-76
2022/01/21 07:14:31;;;;;;;21.48;7.70;;;-2.10;99.90;;;;;;5087158;28;20362;-75
2022/01/21 07:16:56;;;;;;;22.63;8.53;;;-2.10;99.90;;;;;;5086518;28;20024;-77
2022/01/21 07:19:22;;;;;;;17.15;8.38;;;-2.00;99.90;;;;;;5087089;28;20065;-78
2022/01/21 07:21:47;;;;;;;22.20;8.27;;;-2.10;99.90;;;;;;5086460;28;20020;-77
2022/01/21 07:24:14;;;;;;;27.52;8.27;;;-2.00;99.90;;;;;;5087190;28;20031;-77
2022/01/21 07:26:39;;;;;;;36.80;10.15;;;-2.00;99.90;;;;;;5104179;28;20070;-77
2022/01/21 07:29:06;;;;;;;29.90;10.32;;;-2.10;99.90;;;;;;5104435;28;20241;-75
2022/01/21 07:31:31;;;;;;;38.72;10.95;;;-2.00;99.90;;;;;;5069967;28;20047;-75
2022/01/21 07:34:01;;;;;;;38.78;10.65;;;-2.10;99.90;;;;;;5104587;28;20023;-77
2022/01/21 07:36:27;;;;;;;27.35;9.48;;;-2.00;99.90;;;;;;5070297;28;20031;-75
2022/01/21 07:38:52;;;;;;;20.75;9.20;;;-2.10;99.90;;;;;;5104736;28;20028;-76
2022/01/21 07:41:19;;;;;;;22.65;9.25;;;-2.10;99.90;;;;;;5104338;28;20008;-77
2022/01/21 07:43:44;;;;;;;27.10;9.30;;;-2.10;99.90;;;;;;5070146;28;20024;-78
2022/01/21 07:46:10;;;;;;;34.28;11.68;;;-2.00;99.90;;;;;;5104488;28;20065;-78
2022/01/21 07:48:36;;;;;;;26.35;10.05;;;-1.90;99.90;;;;;;5085691;28;20031;-76
2022/01/21 07:51:02;;;;;;;36.53;10.45;;;-2.00;99.90;;;;;;5104565;28;20320;-76
2022/01/21 07:53:27;;;;;;;28.10;10.18;;;-2.10;99.90;;;;;;5086345;28;20030;-74
2022/01/21 07:55:53;;;;;;;20.65;9.38;;;-2.10;99.90;;;;;;5104220;28;20087;-77
2022/01/21 07:58:19;;;;;;;25.40;9.00;;;-2.00;99.90;;;;;;5086179;28;20020;-79
2022/01/21 08:00:46;;;;;;;24.25;9.23;;;-1.90;99.90;;;;;;5103873;28;20030;-74
2022/01/21 08:03:12;;;;;;;26.00;10.48;;;-1.80;99.90;;;;;;5086570;28;20024;-80
2022/01/21 08:05:38;;;;;;;29.40;10.73;;;-1.70;99.90;;;;;;5066555;28;20103;-79
2022/01/21 08:08:04;;;;;;;26.52;11.38;;;-1.70;99.90;;;;;;5103205;28;20024;-77
2022/01/21 08:10:31;;;;;;;27.63;12.70;;;-1.60;99.90;;;;;;5086108;28;20109;-78
2022/01/21 08:12:57;;;;;;;25.02;11.27;;;-1.50;99.90;;;;;;5104316;28;20024;-75
2022/01/21 08:15:23;;;;;;;26.83;11.48;;;-1.50;99.90;;;;;;5083933;28;20208;-77
2022/01/21 08:17:49;;;;;;;29.08;10.77;;;-1.50;99.90;;;;;;5103529;28;20109;-74
2022/01/21 08:20:14;;;;;;;31.02;11.32;;;-1.40;99.90;;;;;;5101923;28;20031;-74
2022/01/21 08:22:40;;;;;;;25.38;10.18;;;-1.50;99.90;;;;;;5102944;28;20051;-71
2022/01/21 08:25:08;;;;;;;26.10;9.93;;;-1.50;99.90;;;;;;5085563;28;20039;-77
2022/01/21 08:27:34;;;;;;;21.45;9.52;;;-1.40;99.90;;;;;;5064873;28;20085;-74
2022/01/21 08:30:00;;;;;;;25.98;8.48;;;-1.40;99.90;;;;;;5084587;28;20027;-78
2022/01/21 08:32:28;;;;;;;30.17;9.07;;;-1.40;99.90;;;;;;5082106;28;20020;-77
2022/01/21 08:34:53;;;;;;;20.48;9.27;;;-1.30;99.90;;;;;;5084890;28;20023;-72
2022/01/21 08:37:19;;;;;;;26.67;9.60;;;-1.20;99.90;;;;;;5084077;28;20028;-73
2022/01/21 08:39:45;;;;;;;27.35;9.30;;;-1.20;99.90;;;;;;5084668;28;20192;-73
2022/01/21 08:42:10;;;;;;;22.63;9.20;;;-1.20;99.90;;;;;;5084690;28;20315;-71
2022/01/21 08:44:37;;;;;;;20.67;8.57;;;-1.10;99.90;;;;;;5102460;28;20027;-72
2022/01/21 08:47:03;;;;;;;18.75;8.40;;;-1.00;99.90;;;;;;5067762;28;20038;-73
2022/01/21 08:49:29;;;;;;;22.67;9.15;;;-1.00;99.90;;;;;;5084783;28;20020;-72
2022/01/21 08:51:57;;;;;;;23.23;9.10;;;-0.90;99.90;;;;;;5067357;28;20107;-74
2022/01/21 08:54:23;;;;;;;25.02;9.88;;;-0.90;99.90;;;;;;5101207;28;20031;-76
2022/01/21 08:56:52;;;;;;;27.80;11.68;;;-0.90;99.90;;;;;;5084913;28;20319;-71
2022/01/21 08:59:19;;;;;;;24.92;10.68;;;-0.70;99.90;;;;;;5085008;28;20043;-74
2022/01/21 09:01:46;;;;;;;22.75;10.93;;;-0.60;99.90;;;;;;5083863;28;20016;-74
2022/01/21 09:04:12;;;;;;;27.13;10.18;;;-0.50;99.90;;;;;;5085060;28;20207;-72
2022/01/21 09:06:38;;;;;;;21.83;10.60;;;-0.40;99.90;;;;;;5065700;28;20039;-73
2022/01/21 09:09:04;;;;;;;22.08;10.23;;;-0.30;99.90;;;;;;5084605;28;20086;-74
2022/01/21 09:11:30;;;;;;;33.28;10.90;;;-0.10;99.90;;;;;;5102344;28;20338;-73
2022/01/21 09:13:57;;;;;;;27.88;11.13;;;-0.10;99.90;;;;;;5102176;28;20044;-71
2022/01/21 09:16:23;;;;;;;39.60;11.93;;;-0.10;99.90;;;;;;5085122;28;20024;-71
2022/01/21 09:18:56;;;;;;;34.83;12.73;;;0.10;99.90;;;;;;5102551;28;20369;-75
2022/01/21 09:21:29;;;;;;;34.85;11.43;;;0.30;99.90;;;;;;5068242;28;20103;-72
2022/01/21 09:23:55;;;;;;;29.60;11.77;;;0.40;99.90;;;;;;5103039;28;20083;-73
2022/01/21 09:26:23;;;;;;;24.70;12.27;;;0.40;99.90;;;;;;5102088;28;20052;-71
2022/01/21 09:28:50;;;;;;;28.80;12.02;;;0.40;99.90;;;;;;5101799;28;20058;-74
2022/01/21 09:31:17;;;;;;;28.05;11.57;;;0.50;99.90;;;;;;5083202;28;20054;-72
2022/01/21 09:33:43;;;;;;;34.28;12.68;;;0.50;99.90;;;;;;5101236;28;20054;-71
2022/01/21 09:36:10;;;;;;;34.55;12.63;;;0.60;99.90;;;;;;5101503;28;20307;-71
2022/01/21 09:38:36;;;;;;;37.42;14.52;;;0.60;99.90;;;;;;5067989;28;20020;-72
2022/01/21 09:41:04;;;;;;;34.97;13.20;;;0.60;99.90;;;;;;5069655;28;20054;-73
2022/01/21 09:43:33;;;;;;;30.27;11.20;;;0.70;99.90;;;;;;5111247;28;20016;-75
2022/01/21 09:46:05;;;;;;;29.52;11.80;;;0.70;99.90;;;;;;5080684;28;20429;-76
2022/01/21 09:48:36;;;;;;;32.42;12.35;;;0.80;99.90;;;;;;5112445;28;20075;-75
2022/01/21 09:51:03;;;;;;;26.77;10.82;;;0.70;99.90;;;;;;5076420;28;20028;-75
2022/01/21 09:53:33;;;;;;;32.42;12.30;;;0.70;99.90;;;;;;5071764;28;20024;-79
2022/01/21 09:56:04;;;;;;;32.90;12.85;;;0.90;99.90;;;;;;5087928;28;20024;-78
2022/01/21 09:58:30;;;;;;;30.75;10.40;;;1.10;99.90;;;;;;5071760;28;20026;-80
2022/01/21 10:00:59;;;;;;;34.35;13.43;;;1.20;99.90;;;;;;5070932;28;20059;-75
2022/01/21 10:03:26;;;;;;;33.03;12.38;;;1.30;99.90;;;;;;5070902;28;20024;-74
2022/01/21 10:05:53;;;;;;;28.58;11.32;;;1.40;99.90;;;;;;5104047;28;20024;-76
2022/01/21 10:08:23;;;;;;;26.27;10.65;;;1.40;99.90;;;;;;5088380;28;20061;-79
2022/01/21 10:10:50;;;;;;;27.98;10.63;;;1.50;99.90;;;;;;5087544;28;20031;-76
2022/01/21 10:13:18;;;;;;;23.33;9.75;;;1.60;99.90;;;;;;5106151;28;20047;-74
2022/01/21 10:15:45;;;;;;;25.92;10.02;;;1.60;99.90;;;;;;5087731;28;20368;-74
2022/01/21 10:18:17;;;;;;;23.85;10.07;;;1.60;99.90;;;;;;5071675;28;20086;-79
2022/01/21 10:21:10;;;;;;;25.75;10.43;;;1.70;99.90;;;;;;5071813;28;20028;-75
2022/01/21 10:23:40;;;;;;;22.45;9.38;;;1.70;99.90;;;;;;5104454;28;20024;-75
2022/01/21 10:26:10;;;;;;;29.88;10.32;;;1.70;99.90;;;;;;5105227;28;20052;-72
2022/01/21 10:28:37;;;;;;;20.65;9.57;;;1.70;99.90;;;;;;5105914;28;20103;-76
2022/01/21 10:31:08;;;;;;;25.50;10.23;;;1.70;99.90;;;;;;5072211;28;20081;-71
2022/01/21 10:33:40;;;;;;;29.65;13.05;;;1.70;99.90;;;;;;5049311;28;20016;-76
2022/01/21 10:36:08;;;;;;;;;;;1.70;99.90;;;;;;5068551;28;20043;-73
2022/01/21 10:38:42;;;;;;;21.35;9.50;;;1.80;99.90;;;;;;5051639;28;19904;-74
2022/01/21 10:41:10;;;;;;;26.92;10.43;;;1.80;99.90;;;;;;5054273;28;20025;-77
2022/01/21 10:43:36;;;;;;;24.20;10.05;;;1.90;99.90;;;;;;5061095;28;20012;-78
2022/01/21 10:46:03;;;;;;;25.13;10.73;;;2.00;99.90;;;;;;5066512;28;20032;-76
2022/01/21 10:48:30;;;;;;;25.90;9.27;;;2.10;99.90;;;;;;5068297;28;20021;-74
2022/01/21 10:51:18;;;;;;;25.38;10.68;;;2.20;99.90;;;;;;5054028;28;20334;-73
2022/01/21 10:53:44;;;;;;;25.90;10.60;;;2.40;99.90;;;;;;5064678;28;20032;-74
2022/01/21 10:56:15;;;;;;;28.58;10.07;;;2.40;99.90;;;;;;5104722;28;20050;-76
2022/01/21 10:58:44;;;;;;;32.55;10.52;;;2.40;99.90;;;;;;5061953;28;20032;-75
2022/01/21 11:01:17;;;;;;;28.17;10.18;;;2.50;99.90;;;;;;5068235;28;20035;-76
2022/01/21 11:04:05;;;;;;;24.17;9.32;;;2.60;99.90;;;;;;5055809;28;20024;-74
2022/01/21 11:06:48;;;;;;;26.30;10.75;;;2.70;99.90;;;;;;5068279;28;20024;-73
2022/01/21 11:09:29;;;;;;;30.23;9.65;;;2.80;99.90;;;;;;5038514;28;20021;-74
2022/01/21 11:12:16;;;;;;;33.83;10.45;;;3.00;99.90;;;;;;5046284;28;20021;-75
2022/01/21 11:14:59;;;;;;;22.42;10.63;;;3.20;99.90;;;;;;5032673;28;20032;-76
2022/01/21 11:17:25;;;;;;;28.35;10.23;;;3.30;99.90;;;;;;5063126;28;20079;-74
2022/01/21 11:20:16;;;;;;;29.02;10.65;;;3.40;99.90;;;;;;5069295;28;20065;-76
2022/01/21 11:22:59;;;;;;;23.80;10.07;;;3.60;99.90;;;;;;5055547;28;20227;-77
2022/01/21 11:25:46;;;;;;;27.05;11.65;;;3.80;99.90;;;;;;5067409;28;20017;-74
2022/01/21 11:28:24;;;;;;;27.58;11.27;;;3.90;99.90;;;;;;5080757;28;20055;-73
2022/01/21 11:30:51;;;;;;;25.52;10.57;;;4.10;99.90;;;;;;5065673;28;20039;-75
2022/01/21 11:33:18;;;;;;;25.23;10.05;;;4.30;99.90;;;;;;5083921;28;20242;-74
2022/01/21 11:35:45;;;;;;;30.63;10.43;;;4.40;99.90;;;;;;5065816;28;20035;-71
2022/01/21 11:38:12;;;;;;;28.08;10.57;;;4.50;99.90;;;;;;5084174;28;20321;-70
2022/01/21 11:40:39;;;;;;;32.50;11.35;;;4.60;99.90;;;;;;5066143;28;20024;-74
2022/01/21 11:43:07;;;;;;;28.63;11.07;;;4.70;99.90;;;;;;5066114;28;20031;-73
2022/01/21 11:46:06;;;;;;;25.92;10.27;;;4.90;99.90;;;;;;5066031;28;20054;-73
2022/01/21 11:51:23;;;;;;;37.47;11.93;;;5.00;99.90;;;;;;5054347;28;20305;-73
2022/01/21 11:53:53;;;;;;;31.88;10.38;;;5.10;99.90;;;;;;5082532;28;20215;-75
2022/01/21 11:56:43;;;;;;;29.23;11.05;;;5.30;99.90;;;;;;5032508;28;20025;-73
2022/01/21 11:59:38;;;;;;;47.15;17.75;;;5.30;99.90;;;;;;5053254;28;20322;-75
2022/01/21 12:02:26;;;;;;;30.75;11.75;;;5.30;99.90;;;;;;5055755;28;20200;-72
2022/01/21 12:05:09;;;;;;;42.40;11.70;;;5.50;99.90;;;;;;5035747;28;20024;-73
2022/01/21 12:07:48;;;;;;;45.83;10.95;;;5.60;99.90;;;;;;5064019;28;20252;-73
2022/01/21 12:10:26;;;;;;;44.05;11.60;;;5.70;99.90;;;;;;5065254;28;20322;-72
2022/01/21 12:13:08;;;;;;;30.33;12.05;;;5.70;99.90;;;;;;5049409;28;20017;-73
2022/01/21 12:15:54;;;;;;;;;;;5.80;99.90;;;;;;5032537;28;20051;-75
2022/01/21 12:19:08;;;;;;;34.83;10.90;;;5.90;99.90;;;;;;5063154;28;19950;-72
2022/01/21 12:21:36;;;;;;;29.05;9.77;;;6.00;99.90;;;;;;5041028;28;20028;-75
2022/01/21 12:24:03;;;;;;;45.83;11.38;;;5.90;99.90;;;;;;5062072;28;20341;-74
2022/01/21 12:26:31;;;;;;;36.28;12.15;;;5.90;99.90;;;;;;5069601;28;20060;-72
2022/01/21 12:29:19;;;;;;;34.67;11.02;;;5.80;99.90;;;;;;5080524;28;20070;-78
2022/01/21 12:32:02;;;;;;;37.45;12.85;;;5.90;99.90;;;;;;5081852;28;20031;-77
2022/01/21 12:34:49;;;;;;;39.08;12.68;;;5.90;99.90;;;;;;5064837;28;20039;-77
2022/01/21 12:37:17;;;;;;;46.40;13.20;;;6.00;99.90;;;;;;5066948;28;20381;-73
2022/01/21 12:39:47;;;;;;;40.40;14.20;;;6.00;99.90;;;;;;5081742;28;20048;-75
2022/01/21 12:42:25;;;;;;;39.38;12.10;;;6.00;99.90;;;;;;5080331;28;20044;-75
2022/01/21 12:45:25;;;;;;;32.60;11.15;;;6.10;99.90;;;;;;5070121;28;20020;-73
2022/01/21 12:47:51;;;;;;;30.20;10.45;;;6.20;99.40;;;;;;5092043;28;20054;-73
2022/01/21 12:50:40;;;;;;;33.60;10.50;;;6.30;99.20;;;;;;5094741;28;20008;-75
2022/01/21 12:53:23;;;;;;;25.83;9.77;;;6.20;99.30;;;;;;5095982;28;20028;-74
2022/01/21 12:56:05;;;;;;;17.23;5.28;;;6.30;99.40;;;;;;5093151;28;20034;-74
2022/01/21 12:58:33;;;;;;;18.73;5.30;;;6.50;98.70;;;;;;5089072;28;20031;-75
2022/01/21 13:01:01;;;;;;;20.63;5.65;;;6.50;98.20;;;;;;5084141;28;20076;-76
2022/01/21 13:03:43;;;;;;;15.57;4.85;;;6.50;98.40;;;;;;5067736;28;20110;-76
2022/01/21 13:06:26;;;;;;;15.48;4.88;;;6.50;98.50;;;;;;5084620;28;20180;-73
2022/01/21 13:09:20;;;;;;;17.38;5.75;;;6.50;98.40;;;;;;5084947;28;20086;-75
2022/01/21 13:11:55;;;;;;;18.88;6.00;;;6.50;98.60;;;;;;5070730;28;20365;-76
2022/01/21 13:14:43;;;;;;;18.50;6.47;;;6.60;98.70;;;;;;5083093;28;20043;-78
2022/01/21 13:17:11;;;;;;;15.38;6.10;;;6.60;98.60;;;;;;5074749;28;20036;-83
2022/01/21 13:19:57;;;;;;;22.73;6.47;;;6.50;98.70;;;;;;5085306;28;20020;-79
2022/01/21 13:22:28;;;;;;;14.45;5.95;;;6.50;98.80;;;;;;5081043;28;20031;-80